sensor_id;sensor_type;location;lat;lon;timestamp;temperature;humidity
75994;DHT22;64680;53.800;9.988;2023-08-30T00:01:06;11.70;99.90
75994;DHT22;64680;53.800;9.988;2023-08-30T00:03:33;11.70;99.90
75994;DHT22;64680;53.800;9.988;2023-08-30T00:06:03;11.60;99.90
75994;DHT22;64680;53.800;9.988;2023-08-30T00:08:30;11.60;99.90
75994;DHT22;64680;53.800;9.988;2023-08-30T00:10:56;11.60;99.90
75994;DHT22;64680;53.800;9.988;2023-08-30T00:13:29;11.60;99.90
75994;DHT22;64680;53.800;9.988;2023-08-30T00:15:55;11.60;99.90
75994;DHT22;64680;53.800;9.988;2023-08-30T00:18:20;11.60;99.90
75994;DHT22;64680;53.800;9.988;2023-08-30T00:20:46;11.50;99.90
75994;DHT22;64680;53.800;9.988;2023-08-30T00:23:12;11.50;99.90
75994;DHT22;64680;53.800;9.988;2023-08-30T00:25:38;11.50;99.90
75994;DHT22;64680;53.800;9.988;2023-08-30T00:28:03;11.50;99.90
75994;DHT22;64680;53.800;9.988;2023-08-30T00:30:29;11.40;99.90
75994;DHT22;64680;53.800;9.988;2023-08-30T00:32:55;11.30;99.90
75994;DHT22;64680;53.800;9.988;2023-08-30T00:35:20;11.40;99.90
75994;DHT22;64680;53.800;9.988;2023-08-30T00:37:46;11.30;99.90
75994;DHT22;64680;53.800;9.988;2023-08-30T00:40:11;11.30;99.90
75994;DHT22;64680;53.800;9.988;2023-08-30T00:42:37;11.30;99.90
75994;DHT22;64680;53.800;9.988;2023-08-30T00:45:03;11.20;99.90
75994;DHT22;64680;53.800;9.988;2023-08-30T00:47:29;11.20;99.90
75994;DHT22;64680;53.800;9.988;2023-08-30T00:49:54;11.20;99.90
75994;DHT22;64680;53.800;9.988;2023-08-30T00:52:20;11.20;99.90
75994;DHT22;64680;53.800;9.988;2023-08-30T00:54:46;11.20;99.90
75994;DHT22;64680;53.800;9.988;2023-08-30T00:57:15;11.10;99.90
75994;DHT22;64680;53.800;9.988;2023-08-30T00:59:41;11.10;99.90
75994;DHT22;64680;53.800;9.988;2023-08-30T01:02:07;11.10;99.90
75994;DHT22;64680;53.800;9.988;2023-08-30T01:04:32;11.10;99.90
75994;DHT22;64680;53.800;9.988;2023-08-30T01:06:58;11.10;99.90
75994;DHT22;64680;53.800;9.988;2023-08-30T01:09:24;11.00;99.90
75994;DHT22;64680;53.800;9.988;2023-08-30T01:12:04;11.00;99.90
75994;DHT22;64680;53.800;9.988;2023-08-30T01:14:40;10.90;99.90
75994;DHT22;64680;53.800;9.988;2023-08-30T01:17:07;10.80;99.90
75994;DHT22;64680;53.800;9.988;2023-08-30T01:22:15;10.80;99.90
75994;DHT22;64680;53.800;9.988;2023-08-30T01:24:48;10.80;99.90
75994;DHT22;64680;53.800;9.988;2023-08-30T01:27:19;10.80;99.90
75994;DHT22;64680;53.800;9.988;2023-08-30T01:29:46;10.70;99.90
75994;DHT22;64680;53.800;9.988;2023-08-30T01:32:13;10.70;99.90
75994;DHT22;64680;53.800;9.988;2023-08-30T01:34:39;10.70;99.90
75994;DHT22;64680;53.800;9.988;2023-08-30T01:37:07;10.70;99.90
75994;DHT22;64680;53.800;9.988;2023-08-30T01:39:37;10.70;99.90
75994;DHT22;64680;53.800;9.988;2023-08-30T01:42:04;10.70;99.90
75994;DHT22;64680;53.800;9.988;2023-08-30T01:44:30;10.80;99.90
75994;DHT22;64680;53.800;9.988;2023-08-30T01:46:57;10.70;99.90
75994;DHT22;64680;53.800;9.988;2023-08-30T01:49:24;10.70;99.90
75994;DHT22;64680;53.800;9.988;2023-08-30T01:51:51;10.70;99.90
75994;DHT22;64680;53.800;9.988;2023-08-30T01:54:18;10.70;99.90
75994;DHT22;64680;53.800;9.988;2023-08-30T01:56:45;10.70;99.90
75994;DHT22;64680;53.800;9.988;2023-08-30T01:59:11;10.60;99.90
75994;DHT22;64680;53.800;9.988;2023-08-30T02:01:37;10.60;99.90
75994;DHT22;64680;53.800;9.988;2023-08-30T02:04:03;10.60;99.90
75994;DHT22;64680;53.800;9.988;2023-08-30T02:06:54;10.60;99.90
75994;DHT22;64680;53.800;9.988;2023-08-30T02:09:29;10.60;99.90
75994;DHT22;64680;53.800;9.988;2023-08-30T02:12:04;10.70;99.90
75994;DHT22;64680;53.800;9.988;2023-08-30T02:14:32;10.70;99.90
75994;DHT22;64680;53.800;9.988;2023-08-30T02:16:58;10.70;99.90
75994;DHT22;64680;53.800;9.988;2023-08-30T02:19:24;10.70;99.90
75994;DHT22;64680;53.800;9.988;2023-08-30T02:21:50;10.70;99.90
75994;DHT22;64680;53.800;9.988;2023-08-30T02:24:16;10.70;99.90
75994;DHT22;64680;53.800;9.988;2023-08-30T02:26:41;10.70;99.90
75994;DHT22;64680;53.800;9.988;2023-08-30T02:29:07;10.70;99.90
75994;DHT22;64680;53.800;9.988;2023-08-30T02:31:33;10.70;99.90
75994;DHT22;64680;53.800;9.988;2023-08-30T02:33:59;10.70;99.90
75994;DHT22;64680;53.800;9.988;2023-08-30T02:36:24;10.70;99.90
75994;DHT22;64680;53.800;9.988;2023-08-30T02:38:50;10.70;99.90
75994;DHT22;64680;53.800;9.988;2023-08-30T02:41:15;10.70;99.90
75994;DHT22;64680;53.800;9.988;2023-08-30T02:43:41;10.70;99.90
75994;DHT22;64680;53.800;9.988;2023-08-30T02:46:07;10.70;99.90
75994;DHT22;64680;53.800;9.988;2023-08-30T02:48:32;10.70;99.90
75994;DHT22;64680;53.800;9.988;2023-08-30T02:50:59;10.80;99.90
75994;DHT22;64680;53.800;9.988;2023-08-30T02:53:24;10.80;99.90
75994;DHT22;64680;53.800;9.988;2023-08-30T02:55:50;10.90;99.90
75994;DHT22;64680;53.800;9.988;2023-08-30T02:58:15;10.90;99.90
75994;DHT22;64680;53.800;9.988;2023-08-30T03:00:41;11.00;99.90
75994;DHT22;64680;53.800;9.988;2023-08-30T03:03:07;11.00;99.90
75994;DHT22;64680;53.800;9.988;2023-08-30T03:05:32;11.00;99.90
75994;DHT22;64680;53.800;9.988;2023-08-30T03:07:58;11.00;99.90
75994;DHT22;64680;53.800;9.988;2023-08-30T03:10:24;11.00;99.90
75994;DHT22;64680;53.800;9.988;2023-08-30T03:12:49;11.00;99.90
75994;DHT22;64680;53.800;9.988;2023-08-30T03:15:15;11.00;99.90
75994;DHT22;64680;53.800;9.988;2023-08-30T03:17:41;11.10;99.90
75994;DHT22;64680;53.800;9.988;2023-08-30T03:20:07;11.10;99.90
75994;DHT22;64680;53.800;9.988;2023-08-30T03:22:32;11.10;99.90
75994;DHT22;64680;53.800;9.988;2023-08-30T03:24:58;11.10;99.90
75994;DHT22;64680;53.800;9.988;2023-08-30T03:27:24;11.20;99.90
75994;DHT22;64680;53.800;9.988;2023-08-30T03:29:50;11.20;99.90
75994;DHT22;64680;53.800;9.988;2023-08-30T03:32:17;11.20;99.90
75994;DHT22;64680;53.800;9.988;2023-08-30T03:34:47;11.20;99.90
75994;DHT22;64680;53.800;9.988;2023-08-30T03:37:16;11.20;99.90
75994;DHT22;64680;53.800;9.988;2023-08-30T03:39:42;11.30;99.90
75994;DHT22;64680;53.800;9.988;2023-08-30T03:42:08;11.30;99.90
75994;DHT22;64680;53.800;9.988;2023-08-30T03:44:34;11.30;99.90
75994;DHT22;64680;53.800;9.988;2023-08-30T03:46:59;11.30;99.90
75994;DHT22;64680;53.800;9.988;2023-08-30T03:49:25;11.40;99.90
75994;DHT22;64680;53.800;9.988;2023-08-30T03:51:51;11.40;99.90
75994;DHT22;64680;53.800;9.988;2023-08-30T03:54:16;11.40;99.90
75994;DHT22;64680;53.800;9.988;2023-08-30T03:56:43;11.50;99.90
75994;DHT22;64680;53.800;9.988;2023-08-30T03:59:09;11.50;99.90
75994;DHT22;64680;53.800;9.988;2023-08-30T04:01:34;11.60;99.90
75994;DHT22;64680;53.800;9.988;2023-08-30T04:04:00;11.70;99.90
75994;DHT22;64680;53.800;9.988;2023-08-30T04:06:26;11.70;99.90
75994;DHT22;64680;53.800;9.988;2023-08-30T04:08:51;11.70;99.90
75994;DHT22;64680;53.800;9.988;2023-08-30T04:11:17;11.80;99.90
75994;DHT22;64680;53.800;9.988;2023-08-30T04:13:42;11.80;99.90
75994;DHT22;64680;53.800;9.988;2023-08-30T04:16:08;11.80;99.90
75994;DHT22;64680;53.800;9.988;2023-08-30T04:18:34;11.90;99.90
75994;DHT22;64680;53.800;9.988;2023-08-30T04:20:59;11.90;99.90
75994;DHT22;64680;53.800;9.988;2023-08-30T04:23:27;11.90;99.90
75994;DHT22;64680;53.800;9.988;2023-08-30T04:25:53;12.00;99.90
75994;DHT22;64680;53.800;9.988;2023-08-30T04:28:18;12.00;99.90
75994;DHT22;64680;53.800;9.988;2023-08-30T04:30:44;12.00;99.90
75994;DHT22;64680;53.800;9.988;2023-08-30T04:33:09;12.00;99.90
75994;DHT22;64680;53.800;9.988;2023-08-30T04:35:35;12.00;99.90
75994;DHT22;64680;53.800;9.988;2023-08-30T04:38:01;12.10;99.90
75994;DHT22;64680;53.800;9.988;2023-08-30T04:40:28;12.10;99.90
75994;DHT22;64680;53.800;9.988;2023-08-30T04:42:55;12.10;99.90
75994;DHT22;64680;53.800;9.988;2023-08-30T04:45:21;12.10;99.90
75994;DHT22;64680;53.800;9.988;2023-08-30T04:47:47;12.20;99.90
75994;DHT22;64680;53.800;9.988;2023-08-30T04:50:13;12.20;99.90
75994;DHT22;64680;53.800;9.988;2023-08-30T04:52:38;12.30;99.90
75994;DHT22;64680;53.800;9.988;2023-08-30T04:55:04;12.30;99.90
75994;DHT22;64680;53.800;9.988;2023-08-30T04:57:30;12.40;99.90
75994;DHT22;64680;53.800;9.988;2023-08-30T04:59:57;12.40;99.90
75994;DHT22;64680;53.800;9.988;2023-08-30T05:02:23;12.50;99.90
75994;DHT22;64680;53.800;9.988;2023-08-30T05:04:48;12.50;99.90
75994;DHT22;64680;53.800;9.988;2023-08-30T05:07:14;12.60;99.90
75994;DHT22;64680;53.800;9.988;2023-08-30T05:09:39;12.60;99.90
75994;DHT22;64680;53.800;9.988;2023-08-30T05:12:06;12.70;99.90
75994;DHT22;64680;53.800;9.988;2023-08-30T05:14:32;12.70;99.90
75994;DHT22;64680;53.800;9.988;2023-08-30T05:16:57;12.70;99.90
75994;DHT22;64680;53.800;9.988;2023-08-30T05:19:23;12.80;99.90
75994;DHT22;64680;53.800;9.988;2023-08-30T05:21:49;12.90;99.90
75994;DHT22;64680;53.800;9.988;2023-08-30T05:24:20;12.90;99.90
75994;DHT22;64680;53.800;9.988;2023-08-30T05:26:46;13.00;99.90
75994;DHT22;64680;53.800;9.988;2023-08-30T05:29:13;13.00;99.90
75994;DHT22;64680;53.800;9.988;2023-08-30T05:31:39;13.10;99.90
75994;DHT22;64680;53.800;9.988;2023-08-30T05:34:05;13.10;99.90
75994;DHT22;64680;53.800;9.988;2023-08-30T05:36:31;13.20;99.90
75994;DHT22;64680;53.800;9.988;2023-08-30T05:38:56;13.20;99.90
75994;DHT22;64680;53.800;9.988;2023-08-30T05:41:22;13.30;99.90
75994;DHT22;64680;53.800;9.988;2023-08-30T05:43:47;13.30;99.90
75994;DHT22;64680;53.800;9.988;2023-08-30T05:46:13;13.40;99.90
75994;DHT22;64680;53.800;9.988;2023-08-30T05:48:41;13.40;99.90
75994;DHT22;64680;53.800;9.988;2023-08-30T05:51:07;13.50;99.90
75994;DHT22;64680;53.800;9.988;2023-08-30T05:53:32;13.60;99.90
75994;DHT22;64680;53.800;9.988;2023-08-30T05:55:58;13.60;99.90
75994;DHT22;64680;53.800;9.988;2023-08-30T05:58:23;13.70;99.90
75994;DHT22;64680;53.800;9.988;2023-08-30T06:00:50;13.70;99.90
75994;DHT22;64680;53.800;9.988;2023-08-30T06:03:15;13.80;99.90
75994;DHT22;64680;53.800;9.988;2023-08-30T06:05:41;13.80;99.90
75994;DHT22;64680;53.800;9.988;2023-08-30T06:08:08;13.90;99.90
75994;DHT22;64680;53.800;9.988;2023-08-30T06:10:34;13.90;99.90
75994;DHT22;64680;53.800;9.988;2023-08-30T06:13:00;14.00;98.80
75994;DHT22;64680;53.800;9.988;2023-08-30T06:15:25;14.10;99.30
75994;DHT22;64680;53.800;9.988;2023-08-30T06:17:52;14.10;98.50
75994;DHT22;64680;53.800;9.988;2023-08-30T06:20:17;14.20;97.80
75994;DHT22;64680;53.800;9.988;2023-08-30T06:22:43;14.30;97.30
75994;DHT22;64680;53.800;9.988;2023-08-30T06:25:09;14.30;93.80
75994;DHT22;64680;53.800;9.988;2023-08-30T06:27:43;14.40;91.70
75994;DHT22;64680;53.800;9.988;2023-08-30T06:30:10;14.40;91.00
75994;DHT22;64680;53.800;9.988;2023-08-30T06:32:36;14.60;90.30
75994;DHT22;64680;53.800;9.988;2023-08-30T06:35:01;14.90;88.00
75994;DHT22;64680;53.800;9.988;2023-08-30T06:37:28;15.00;84.40
75994;DHT22;64680;53.800;9.988;2023-08-30T06:39:53;15.30;79.00
75994;DHT22;64680;53.800;9.988;2023-08-30T06:42:19;15.40;76.30
75994;DHT22;64680;53.800;9.988;2023-08-30T06:44:44;15.60;76.00
75994;DHT22;64680;53.800;9.988;2023-08-30T06:47:10;15.70;71.90
75994;DHT22;64680;53.800;9.988;2023-08-30T06:49:36;15.70;68.00
75994;DHT22;64680;53.800;9.988;2023-08-30T06:52:01;15.90;64.00
75994;DHT22;64680;53.800;9.988;2023-08-30T06:54:29;15.90;62.90
75994;DHT22;64680;53.800;9.988;2023-08-30T06:57:02;16.00;63.60
75994;DHT22;64680;53.800;9.988;2023-08-30T06:59:28;16.00;64.80
75994;DHT22;64680;53.800;9.988;2023-08-30T07:01:54;16.00;64.40
75994;DHT22;64680;53.800;9.988;2023-08-30T07:04:19;16.20;61.40
75994;DHT22;64680;53.800;9.988;2023-08-30T07:06:45;16.30;59.50
75994;DHT22;64680;53.800;9.988;2023-08-30T07:09:11;16.50;59.00
75994;DHT22;64680;53.800;9.988;2023-08-30T07:11:37;16.70;52.00
75994;DHT22;64680;53.800;9.988;2023-08-30T07:14:04;16.80;44.60
75994;DHT22;64680;53.800;9.988;2023-08-30T07:16:30;16.70;44.60
75994;DHT22;64680;53.800;9.988;2023-08-30T07:18:59;16.70;45.50
75994;DHT22;64680;53.800;9.988;2023-08-30T07:21:25;16.50;46.10
75994;DHT22;64680;53.800;9.988;2023-08-30T07:23:51;16.50;44.40
75994;DHT22;64680;53.800;9.988;2023-08-30T07:26:16;16.50;45.10
75994;DHT22;64680;53.800;9.988;2023-08-30T07:28:42;16.50;47.30
75994;DHT22;64680;53.800;9.988;2023-08-30T07:31:07;16.70;50.60
75994;DHT22;64680;53.800;9.988;2023-08-30T07:33:33;16.90;38.10
75994;DHT22;64680;53.800;9.988;2023-08-30T07:35:59;16.90;45.20
75994;DHT22;64680;53.800;9.988;2023-08-30T07:38:25;17.10;44.50
75994;DHT22;64680;53.800;9.988;2023-08-30T07:40:50;17.30;44.80
75994;DHT22;64680;53.800;9.988;2023-08-30T07:43:16;17.40;39.00
75994;DHT22;64680;53.800;9.988;2023-08-30T07:45:42;17.60;37.50
75994;DHT22;64680;53.800;9.988;2023-08-30T07:48:08;17.60;31.60
75994;DHT22;64680;53.800;9.988;2023-08-30T07:50:33;17.60;38.00
75994;DHT22;64680;53.800;9.988;2023-08-30T07:52:59;17.70;33.60
75994;DHT22;64680;53.800;9.988;2023-08-30T07:55:25;17.60;32.70
75994;DHT22;64680;53.800;9.988;2023-08-30T07:57:50;17.60;29.10
75994;DHT22;64680;53.800;9.988;2023-08-30T08:00:16;17.50;26.70
75994;DHT22;64680;53.800;9.988;2023-08-30T08:02:42;17.30;34.20
75994;DHT22;64680;53.800;9.988;2023-08-30T08:05:07;17.30;32.00
75994;DHT22;64680;53.800;9.988;2023-08-30T08:07:33;17.40;32.40
75994;DHT22;64680;53.800;9.988;2023-08-30T08:09:59;17.60;26.50
75994;DHT22;64680;53.800;9.988;2023-08-30T08:12:26;17.70;28.40
75994;DHT22;64680;53.800;9.988;2023-08-30T08:14:51;17.80;27.10
75994;DHT22;64680;53.800;9.988;2023-08-30T08:17:17;17.90;27.80
75994;DHT22;64680;53.800;9.988;2023-08-30T08:19:43;18.00;27.90
75994;DHT22;64680;53.800;9.988;2023-08-30T08:22:09;18.20;23.10
75994;DHT22;64680;53.800;9.988;2023-08-30T08:24:35;18.30;18.10
75994;DHT22;64680;53.800;9.988;2023-08-30T08:27:00;18.40;18.20
75994;DHT22;64680;53.800;9.988;2023-08-30T08:29:27;18.50;19.70
75994;DHT22;64680;53.800;9.988;2023-08-30T08:31:53;18.60;19.30
75994;DHT22;64680;53.800;9.988;2023-08-30T08:34:19;18.80;16.50
75994;DHT22;64680;53.800;9.988;2023-08-30T08:36:45;18.80;14.20
75994;DHT22;64680;53.800;9.988;2023-08-30T08:39:10;18.80;13.80
75994;DHT22;64680;53.800;9.988;2023-08-30T08:41:43;18.80;12.70
75994;DHT22;64680;53.800;9.988;2023-08-30T08:44:13;18.70;7.10
75994;DHT22;64680;53.800;9.988;2023-08-30T08:46:40;18.70;6.80
75994;DHT22;64680;53.800;9.988;2023-08-30T08:49:09;18.60;9.30
75994;DHT22;64680;53.800;9.988;2023-08-30T08:51:36;18.60;7.90
75994;DHT22;64680;53.800;9.988;2023-08-30T08:54:04;18.50;9.60
75994;DHT22;64680;53.800;9.988;2023-08-30T08:56:31;18.50;11.80
75994;DHT22;64680;53.800;9.988;2023-08-30T08:58:57;18.50;11.00
75994;DHT22;64680;53.800;9.988;2023-08-30T09:01:24;18.70;10.10
75994;DHT22;64680;53.800;9.988;2023-08-30T09:03:50;18.80;9.40
75994;DHT22;64680;53.800;9.988;2023-08-30T09:06:16;18.90;10.20
75994;DHT22;64680;53.800;9.988;2023-08-30T09:08:42;19.10;4.20
75994;DHT22;64680;53.800;9.988;2023-08-30T09:11:08;19.10;8.30
75994;DHT22;64680;53.800;9.988;2023-08-30T09:13:34;19.10;4.50
75994;DHT22;64680;53.800;9.988;2023-08-30T09:15:59;19.20;8.10
75994;DHT22;64680;53.800;9.988;2023-08-30T09:18:25;19.30;5.40
75994;DHT22;64680;53.800;9.988;2023-08-30T09:21:05;19.00;7.70
75994;DHT22;64680;53.800;9.988;2023-08-30T09:23:31;18.90;6.30
75994;DHT22;64680;53.800;9.988;2023-08-30T09:25:56;19.00;1.00
75994;DHT22;64680;53.800;9.988;2023-08-30T09:28:22;18.90;3.70
75994;DHT22;64680;53.800;9.988;2023-08-30T09:30:51;19.00;4.10
75994;DHT22;64680;53.800;9.988;2023-08-30T09:33:30;18.90;4.70
75994;DHT22;64680;53.800;9.988;2023-08-30T09:35:57;18.70;9.40
75994;DHT22;64680;53.800;9.988;2023-08-30T09:38:24;18.80;5.50
75994;DHT22;64680;53.800;9.988;2023-08-30T09:40:50;18.70;4.30
75994;DHT22;64680;53.800;9.988;2023-08-30T09:43:19;18.80;1.60
75994;DHT22;64680;53.800;9.988;2023-08-30T09:45:47;18.80;2.10
75994;DHT22;64680;53.800;9.988;2023-08-30T09:48:13;18.70;3.10
75994;DHT22;64680;53.800;9.988;2023-08-30T09:50:42;18.70;1.00
75994;DHT22;64680;53.800;9.988;2023-08-30T09:53:09;18.70;1.00
75994;DHT22;64680;53.800;9.988;2023-08-30T09:55:36;18.70;1.00
75994;DHT22;64680;53.800;9.988;2023-08-30T09:58:03;18.70;1.00
75994;DHT22;64680;53.800;9.988;2023-08-30T10:00:33;18.90;1.00
75994;DHT22;64680;53.800;9.988;2023-08-30T10:02:59;18.90;1.00
75994;DHT22;64680;53.800;9.988;2023-08-30T10:05:26;19.00;1.00
75994;DHT22;64680;53.800;9.988;2023-08-30T10:07:52;19.00;1.00
75994;DHT22;64680;53.800;9.988;2023-08-30T10:10:19;18.90;1.00
75994;DHT22;64680;53.800;9.988;2023-08-30T10:12:46;18.80;1.00
75994;DHT22;64680;53.800;9.988;2023-08-30T10:15:12;18.80;1.00
75994;DHT22;64680;53.800;9.988;2023-08-30T10:17:44;18.80;1.00
75994;DHT22;64680;53.800;9.988;2023-08-30T10:20:11;18.80;1.00
75994;DHT22;64680;53.800;9.988;2023-08-30T10:22:38;18.70;1.00
75994;DHT22;64680;53.800;9.988;2023-08-30T10:25:19;18.60;1.00
75994;DHT22;64680;53.800;9.988;2023-08-30T10:27:48;18.50;1.00
75994;DHT22;64680;53.800;9.988;2023-08-30T10:30:15;18.40;1.00
75994;DHT22;64680;53.800;9.988;2023-08-30T10:32:43;18.40;1.00
75994;DHT22;64680;53.800;9.988;2023-08-30T10:35:15;18.30;1.00
75994;DHT22;64680;53.800;9.988;2023-08-30T10:37:42;18.50;1.00
75994;DHT22;64680;53.800;9.988;2023-08-30T10:40:08;18.50;1.00
75994;DHT22;64680;53.800;9.988;2023-08-30T10:42:34;18.50;1.00
75994;DHT22;64680;53.800;9.988;2023-08-30T10:45:02;18.60;1.00
75994;DHT22;64680;53.800;9.988;2023-08-30T10:47:31;18.70;1.00
75994;DHT22;64680;53.800;9.988;2023-08-30T10:49:58;18.90;1.00
75994;DHT22;64680;53.800;9.988;2023-08-30T10:52:25;18.80;1.00
75994;DHT22;64680;53.800;9.988;2023-08-30T10:54:51;18.70;1.00
75994;DHT22;64680;53.800;9.988;2023-08-30T10:57:24;18.70;1.00
75994;DHT22;64680;53.800;9.988;2023-08-30T11:02:35;18.70;1.00
75994;DHT22;64680;53.800;9.988;2023-08-30T11:05:01;18.90;1.00
75994;DHT22;64680;53.800;9.988;2023-08-30T11:07:29;19.00;1.00
75994;DHT22;64680;53.800;9.988;2023-08-30T11:09:55;19.10;1.00
75994;DHT22;64680;53.800;9.988;2023-08-30T11:12:21;19.40;1.00
75994;DHT22;64680;53.800;9.988;2023-08-30T11:14:51;19.60;1.00
75994;DHT22;64680;53.800;9.988;2023-08-30T11:17:17;19.60;1.00
75994;DHT22;64680;53.800;9.988;2023-08-30T11:19:43;19.60;1.00
75994;DHT22;64680;53.800;9.988;2023-08-30T11:22:09;19.60;1.00
75994;DHT22;64680;53.800;9.988;2023-08-30T11:24:35;19.90;1.00
75994;DHT22;64680;53.800;9.988;2023-08-30T11:27:01;20.00;1.00
75994;DHT22;64680;53.800;9.988;2023-08-30T11:29:27;19.50;1.00
75994;DHT22;64680;53.800;9.988;2023-08-30T11:31:52;19.40;1.00
75994;DHT22;64680;53.800;9.988;2023-08-30T11:34:21;19.30;1.00
75994;DHT22;64680;53.800;9.988;2023-08-30T11:36:48;19.20;1.00
75994;DHT22;64680;53.800;9.988;2023-08-30T11:39:16;19.10;1.00
75994;DHT22;64680;53.800;9.988;2023-08-30T11:41:43;19.40;1.00
75994;DHT22;64680;53.800;9.988;2023-08-30T11:44:08;19.70;1.00
75994;DHT22;64680;53.800;9.988;2023-08-30T11:46:34;19.90;1.00
75994;DHT22;64680;53.800;9.988;2023-08-30T11:49:00;20.00;1.00
75994;DHT22;64680;53.800;9.988;2023-08-30T11:51:26;20.00;1.00
75994;DHT22;64680;53.800;9.988;2023-08-30T11:53:52;19.70;1.00
75994;DHT22;64680;53.800;9.988;2023-08-30T11:56:19;19.70;1.00
75994;DHT22;64680;53.800;9.988;2023-08-30T11:58:45;19.50;1.00
75994;DHT22;64680;53.800;9.988;2023-08-30T12:01:11;19.60;1.00
75994;DHT22;64680;53.800;9.988;2023-08-30T12:03:37;19.60;1.00
75994;DHT22;64680;53.800;9.988;2023-08-30T12:06:09;19.70;1.00
75994;DHT22;64680;53.800;9.988;2023-08-30T12:08:36;19.80;1.00
75994;DHT22;64680;53.800;9.988;2023-08-30T12:11:02;19.70;1.00
75994;DHT22;64680;53.800;9.988;2023-08-30T12:13:37;19.80;1.00
75994;DHT22;64680;53.800;9.988;2023-08-30T12:16:02;19.70;1.00
75994;DHT22;64680;53.800;9.988;2023-08-30T12:18:31;19.60;1.00
75994;DHT22;64680;53.800;9.988;2023-08-30T12:21:02;19.40;1.00
75994;DHT22;64680;53.800;9.988;2023-08-30T12:23:30;19.40;1.00
75994;DHT22;64680;53.800;9.988;2023-08-30T12:28:25;19.10;1.00
75994;DHT22;64680;53.800;9.988;2023-08-30T12:30:52;19.10;1.00
75994;DHT22;64680;53.800;9.988;2023-08-30T12:33:17;19.10;1.00
75994;DHT22;64680;53.800;9.988;2023-08-30T12:35:43;19.00;1.00
75994;DHT22;64680;53.800;9.988;2023-08-30T12:38:09;18.90;1.00
75994;DHT22;64680;53.800;9.988;2023-08-30T12:40:35;18.80;1.00
75994;DHT22;64680;53.800;9.988;2023-08-30T12:43:01;18.70;1.00
75994;DHT22;64680;53.800;9.988;2023-08-30T12:45:26;18.60;1.00
75994;DHT22;64680;53.800;9.988;2023-08-30T12:47:52;18.60;1.00
75994;DHT22;64680;53.800;9.988;2023-08-30T12:50:18;18.50;1.00
75994;DHT22;64680;53.800;9.988;2023-08-30T12:52:43;18.40;1.00
75994;DHT22;64680;53.800;9.988;2023-08-30T12:55:09;18.30;1.00
75994;DHT22;64680;53.800;9.988;2023-08-30T12:57:34;18.30;1.00
75994;DHT22;64680;53.800;9.988;2023-08-30T13:00:00;18.50;1.00
75994;DHT22;64680;53.800;9.988;2023-08-30T13:02:25;18.50;1.00
75994;DHT22;64680;53.800;9.988;2023-08-30T13:04:51;18.60;1.00
75994;DHT22;64680;53.800;9.988;2023-08-30T13:07:16;18.90;1.00
75994;DHT22;64680;53.800;9.988;2023-08-30T13:09:42;19.40;1.00
75994;DHT22;64680;53.800;9.988;2023-08-30T13:12:08;19.60;1.00
75994;DHT22;64680;53.800;9.988;2023-08-30T13:14:34;19.90;1.00
75994;DHT22;64680;53.800;9.988;2023-08-30T13:16:59;20.00;1.00
75994;DHT22;64680;53.800;9.988;2023-08-30T13:19:25;20.10;1.00
75994;DHT22;64680;53.800;9.988;2023-08-30T13:21:50;20.10;1.00
75994;DHT22;64680;53.800;9.988;2023-08-30T13:24:16;20.10;1.00
75994;DHT22;64680;53.800;9.988;2023-08-30T13:26:42;20.30;1.00
75994;DHT22;64680;53.800;9.988;2023-08-30T13:29:07;20.40;1.00
75994;DHT22;64680;53.800;9.988;2023-08-30T13:31:33;20.50;1.00
75994;DHT22;64680;53.800;9.988;2023-08-30T13:33:58;20.50;1.00
75994;DHT22;64680;53.800;9.988;2023-08-30T13:36:24;20.40;1.00
75994;DHT22;64680;53.800;9.988;2023-08-30T13:38:50;20.00;1.00
75994;DHT22;64680;53.800;9.988;2023-08-30T13:41:15;19.80;1.00
75994;DHT22;64680;53.800;9.988;2023-08-30T13:43:41;19.60;1.00
75994;DHT22;64680;53.800;9.988;2023-08-30T13:46:06;19.60;1.00
75994;DHT22;64680;53.800;9.988;2023-08-30T13:48:32;19.70;1.00
75994;DHT22;64680;53.800;9.988;2023-08-30T13:50:58;19.70;1.00
75994;DHT22;64680;53.800;9.988;2023-08-30T13:53:23;19.80;1.00
75994;DHT22;64680;53.800;9.988;2023-08-30T13:55:50;20.00;1.00
75994;DHT22;64680;53.800;9.988;2023-08-30T13:58:15;19.80;1.00
75994;DHT22;64680;53.800;9.988;2023-08-30T14:00:41;19.80;1.00
75994;DHT22;64680;53.800;9.988;2023-08-30T14:03:07;19.60;1.00
75994;DHT22;64680;53.800;9.988;2023-08-30T14:05:33;19.60;1.00
75994;DHT22;64680;53.800;9.988;2023-08-30T14:07:59;19.60;1.00
75994;DHT22;64680;53.800;9.988;2023-08-30T14:10:24;19.70;1.00
75994;DHT22;64680;53.800;9.988;2023-08-30T14:12:50;19.60;1.00
75994;DHT22;64680;53.800;9.988;2023-08-30T14:15:15;19.70;1.00
75994;DHT22;64680;53.800;9.988;2023-08-30T14:17:43;19.80;1.00
75994;DHT22;64680;53.800;9.988;2023-08-30T14:20:09;19.80;1.00
75994;DHT22;64680;53.800;9.988;2023-08-30T14:22:35;19.70;1.00
75994;DHT22;64680;53.800;9.988;2023-08-30T14:25:02;19.70;1.00
75994;DHT22;64680;53.800;9.988;2023-08-30T14:27:28;19.50;1.00
75994;DHT22;64680;53.800;9.988;2023-08-30T14:29:53;19.40;1.00
75994;DHT22;64680;53.800;9.988;2023-08-30T14:32:19;19.50;1.00
75994;DHT22;64680;53.800;9.988;2023-08-30T14:34:44;19.70;1.00
75994;DHT22;64680;53.800;9.988;2023-08-30T14:37:10;19.80;1.00
75994;DHT22;64680;53.800;9.988;2023-08-30T14:39:36;19.90;1.00
75994;DHT22;64680;53.800;9.988;2023-08-30T14:42:02;19.90;1.00
75994;DHT22;64680;53.800;9.988;2023-08-30T14:44:27;19.90;1.00
75994;DHT22;64680;53.800;9.988;2023-08-30T14:46:53;19.70;1.00
75994;DHT22;64680;53.800;9.988;2023-08-30T14:49:19;19.60;1.00
75994;DHT22;64680;53.800;9.988;2023-08-30T14:51:44;19.50;1.00
75994;DHT22;64680;53.800;9.988;2023-08-30T14:54:10;19.30;1.00
75994;DHT22;64680;53.800;9.988;2023-08-30T14:56:36;19.20;1.00
75994;DHT22;64680;53.800;9.988;2023-08-30T14:59:01;19.20;1.00
75994;DHT22;64680;53.800;9.988;2023-08-30T15:01:27;19.20;1.00
75994;DHT22;64680;53.800;9.988;2023-08-30T15:03:52;19.30;1.00
75994;DHT22;64680;53.800;9.988;2023-08-30T15:06:18;19.30;1.00
75994;DHT22;64680;53.800;9.988;2023-08-30T15:08:43;19.30;1.00
75994;DHT22;64680;53.800;9.988;2023-08-30T15:11:09;19.20;1.00
75994;DHT22;64680;53.800;9.988;2023-08-30T15:13:35;19.00;1.00
75994;DHT22;64680;53.800;9.988;2023-08-30T15:16:03;18.90;1.00
75994;DHT22;64680;53.800;9.988;2023-08-30T15:18:29;18.80;1.00
75994;DHT22;64680;53.800;9.988;2023-08-30T15:20:54;18.80;1.00
75994;DHT22;64680;53.800;9.988;2023-08-30T15:23:21;18.70;1.00
75994;DHT22;64680;53.800;9.988;2023-08-30T15:25:47;18.70;1.00
75994;DHT22;64680;53.800;9.988;2023-08-30T15:28:14;18.70;1.00
75994;DHT22;64680;53.800;9.988;2023-08-30T15:30:46;18.70;1.00
75994;DHT22;64680;53.800;9.988;2023-08-30T15:33:12;18.70;1.00
75994;DHT22;64680;53.800;9.988;2023-08-30T15:35:39;18.70;1.00
75994;DHT22;64680;53.800;9.988;2023-08-30T15:38:06;18.60;1.00
75994;DHT22;64680;53.800;9.988;2023-08-30T15:40:31;18.50;1.00